createdAt,value
2022-10-03T00:00:00.636Z,10.1
2022-10-03T00:05:00.621Z,10.1
2022-10-03T00:10:00.680Z,10.1
2022-10-03T00:15:00.365Z,10.1
2022-10-03T00:20:00.259Z,10.1
2022-10-03T00:25:00.291Z,10
2022-10-03T00:30:00.288Z,10
2022-10-03T00:35:00.293Z,10.1
2022-10-03T00:40:00.286Z,10.1
2022-10-03T00:45:00.295Z,10.1
2022-10-03T00:50:00.291Z,10.1
2022-10-03T00:55:00.286Z,10.1
2022-10-03T01:00:00.308Z,10.1
2022-10-03T01:05:00.283Z,10.1
2022-10-03T01:10:00.288Z,10.1
2022-10-03T01:15:00.286Z,10.1
2022-10-03T01:20:00.290Z,10.1
2022-10-03T01:25:00.285Z,10.1
2022-10-03T01:30:00.305Z,10.1
2022-10-03T01:35:00.299Z,10
2022-10-03T01:40:00.281Z,10.1
2022-10-03T01:45:00.293Z,10.1
2022-10-03T01:50:00.287Z,10.2
2022-10-03T01:55:00.289Z,10.2
2022-10-03T02:00:00.289Z,10.1
2022-10-03T02:05:00.287Z,10.1
2022-10-03T02:10:00.282Z,10.1
2022-10-03T02:15:00.292Z,10.1
2022-10-03T02:20:00.289Z,10.1
2022-10-03T02:25:00.295Z,10
2022-10-03T02:30:00.289Z,10
2022-10-03T02:35:00.286Z,10.1
2022-10-03T02:40:00.288Z,10
2022-10-03T02:45:00.343Z,10
2022-10-03T02:50:00.436Z,10
2022-10-03T02:55:00.285Z,10
2022-10-03T03:00:00.281Z,10
2022-10-03T03:05:00.323Z,10
2022-10-03T03:10:00.288Z,10
2022-10-03T03:15:00.285Z,10
2022-10-03T03:20:00.288Z,10
2022-10-03T03:25:00.289Z,10
2022-10-03T03:30:00.289Z,10
2022-10-03T03:35:00.290Z,10
2022-10-03T03:40:00.296Z,9.9
2022-10-03T03:45:00.290Z,9.9
2022-10-03T03:50:00.289Z,9.9
2022-10-03T03:55:00.292Z,9.9
2022-10-03T04:00:00.284Z,9.9
2022-10-03T04:05:00.289Z,9.9
2022-10-03T04:10:00.299Z,9.9
2022-10-03T04:15:00.291Z,9.9
2022-10-03T04:20:00.287Z,9.9
2022-10-03T04:25:00.287Z,9.9
2022-10-03T04:30:00.289Z,9.9
2022-10-03T04:35:00.293Z,9.8
2022-10-03T04:40:00.289Z,9.8
2022-10-03T04:45:00.290Z,9.8
2022-10-03T04:50:00.298Z,9.8
2022-10-03T04:55:00.286Z,9.8
2022-10-03T05:00:00.291Z,9.8
2022-10-03T05:05:00.300Z,9.6
2022-10-03T05:10:04.578Z,9.6
2022-10-03T05:15:00.651Z,9.6
2022-10-03T05:20:00.376Z,9.5
2022-10-03T05:25:00.302Z,9.4
2022-10-03T05:30:00.287Z,9.4
2022-10-03T05:35:00.288Z,9.4
2022-10-03T05:40:00.286Z,9.4
2022-10-03T05:45:00.287Z,9.4
2022-10-03T05:50:00.287Z,9.4
2022-10-03T05:55:00.296Z,9.4
2022-10-03T06:00:00.320Z,9.4
2022-10-03T06:05:00.287Z,9.4
2022-10-03T06:10:00.269Z,9.4
2022-10-03T06:15:00.290Z,9.5
2022-10-03T06:20:00.292Z,9.5
2022-10-03T06:25:00.290Z,9.5
2022-10-03T06:30:00.288Z,9.5
2022-10-03T06:35:00.295Z,9.6
2022-10-03T06:40:00.285Z,9.5
2022-10-03T06:45:00.297Z,9.5
2022-10-03T06:50:00.296Z,9.5
2022-10-03T06:55:00.287Z,9.5
2022-10-03T07:00:00.299Z,9.5
2022-10-03T07:05:00.295Z,9.4
2022-10-03T07:10:01.817Z,9.4
2022-10-03T07:15:03.806Z,9.4
2022-10-03T07:20:00.587Z,9.3
2022-10-03T07:25:00.294Z,9.3
2022-10-03T07:30:00.188Z,9.2
2022-10-03T07:35:00.174Z,9.2
2022-10-03T07:40:00.168Z,9.2
2022-10-03T07:45:00.166Z,9.2
2022-10-03T07:50:00.245Z,9.1
2022-10-03T07:55:00.166Z,9.2
2022-10-03T08:00:00.592Z,9.2
2022-10-03T08:05:00.530Z,9.2
2022-10-03T08:10:00.525Z,9.1
2022-10-03T08:15:00.592Z,9.2
2022-10-03T08:20:00.508Z,9.4
2022-10-03T08:25:02.831Z,9.4
2022-10-03T08:30:00.566Z,9.6
2022-10-03T08:35:00.209Z,9.5
2022-10-03T08:40:00.180Z,9.4
2022-10-03T08:45:00.168Z,9.4
2022-10-03T08:50:04.462Z,9.5
2022-10-03T08:55:00.165Z,9.5
2022-10-03T09:00:00.202Z,9.5
2022-10-03T09:05:00.158Z,9.6
2022-10-03T09:10:00.168Z,9.7
2022-10-03T09:15:00.174Z,9.8
2022-10-03T09:20:00.177Z,9.6
2022-10-03T09:25:00.169Z,10.1
2022-10-03T09:30:00.178Z,9.7
2022-10-03T09:35:02.656Z,9.7
2022-10-03T09:40:00.186Z,9.9
2022-10-03T09:45:00.172Z,9.8
2022-10-03T09:50:00.170Z,10.2
2022-10-03T09:55:00.172Z,9.6
2022-10-03T10:00:00.225Z,9.6
2022-10-03T10:05:00.230Z,9.5
2022-10-03T10:10:00.609Z,9.5
2022-10-03T10:15:00.255Z,9.6
2022-10-03T10:20:00.155Z,9.5
2022-10-03T10:25:00.179Z,9.3
2022-10-03T10:30:00.184Z,9.4
2022-10-03T10:35:00.171Z,9.2
2022-10-03T10:40:00.172Z,9.5
2022-10-03T10:45:00.171Z,9.4
2022-10-03T10:50:00.173Z,9.4
2022-10-03T10:55:00.176Z,9.7
2022-10-03T11:00:00.184Z,9.3
2022-10-03T11:05:00.224Z,9.7
2022-10-03T11:10:00.169Z,9.7
2022-10-03T11:15:00.165Z,9.1
2022-10-03T11:20:00.176Z,9.3
2022-10-03T11:25:00.167Z,9.4
2022-10-03T11:30:00.540Z,9.1
2022-10-03T11:35:00.524Z,9.4
2022-10-03T11:40:00.492Z,9.2
2022-10-03T11:45:00.615Z,9.1
2022-10-03T11:50:00.485Z,8.9
2022-10-03T11:55:00.509Z,8.8
2022-10-03T12:00:00.339Z,9.2
2022-10-03T12:05:00.169Z,9.3
2022-10-03T12:10:00.192Z,9.4
2022-10-03T12:15:00.161Z,9.1
2022-10-03T12:20:00.174Z,8.9
2022-10-03T12:25:00.754Z,8.9
2022-10-03T12:30:30.707Z,8.9
2022-10-03T12:35:00.505Z,8.9
2022-10-03T12:40:00.323Z,8.8
2022-10-03T12:45:00.327Z,8.9
2022-10-03T12:50:00.135Z,9
2022-10-03T12:55:00.038Z,9.2
2022-10-03T13:00:00.039Z,9.4
2022-10-03T13:05:00.410Z,9.1
2022-10-03T13:10:00.154Z,9.1
2022-10-03T13:15:00.039Z,9.1
2022-10-03T13:20:00.427Z,9
2022-10-03T13:25:00.386Z,8.9
2022-10-03T13:30:00.084Z,8.9
2022-10-03T13:35:00.032Z,8.8
2022-10-03T13:40:00.324Z,9
2022-10-03T13:45:00.101Z,8.8
2022-10-03T13:50:00.378Z,8.8
2022-10-03T13:55:00.343Z,9.1
2022-10-03T14:00:00.352Z,9
2022-10-03T14:05:00.319Z,9.1
2022-10-03T14:10:00.106Z,8.9
2022-10-03T14:15:00.043Z,9
2022-10-03T14:20:00.361Z,9
2022-10-03T14:25:00.143Z,8.9
2022-10-03T14:30:00.038Z,8.8
2022-10-03T14:35:00.324Z,8.7
2022-10-03T14:40:00.156Z,8.6
2022-10-03T14:45:00.164Z,8.6
2022-10-03T14:50:00.311Z,8.7
2022-10-03T14:55:00.036Z,8.7
2022-10-03T15:00:00.295Z,8.7
2022-10-03T15:05:00.151Z,8.7
2022-10-03T15:10:00.042Z,8.8
2022-10-03T15:15:00.050Z,9
2022-10-03T15:20:00.035Z,9.1
2022-10-03T15:25:00.364Z,8.9
2022-10-03T15:30:00.366Z,9.1
2022-10-03T15:35:00.365Z,9.1
2022-10-03T15:40:00.153Z,9.2
2022-10-03T15:45:00.028Z,9.1
2022-10-03T15:50:00.037Z,9
2022-10-03T15:55:11.326Z,8.8
2022-10-03T16:00:03.158Z,8.8
2022-10-03T16:05:00.108Z,9.2
2022-10-03T16:10:00.390Z,9.6
2022-10-03T16:15:00.313Z,9.9
2022-10-03T16:20:00.121Z,9.6
2022-10-03T16:25:00.055Z,9.6
2022-10-03T16:30:00.033Z,9.2
2022-10-03T16:35:00.038Z,9.2
2022-10-03T16:40:00.035Z,9.3
2022-10-03T16:45:00.035Z,9
2022-10-03T16:50:00.040Z,9
2022-10-03T16:55:00.035Z,9.1
2022-10-03T17:00:00.344Z,9.1
2022-10-03T17:05:00.344Z,9.1
2022-10-03T17:10:00.104Z,9.2
2022-10-03T17:15:00.370Z,9.1
2022-10-03T17:20:00.465Z,9.1
2022-10-03T17:25:00.173Z,9.1
2022-10-03T17:30:00.123Z,9.2
2022-10-03T17:35:00.077Z,9.2
2022-10-03T17:40:00.104Z,9.1
2022-10-03T17:45:00.067Z,9.1
2022-10-03T17:50:00.114Z,9.1
2022-10-03T17:55:00.074Z,9.1
2022-10-03T18:00:00.332Z,9.2
2022-10-03T18:05:01.437Z,9.1
2022-10-03T18:10:00.407Z,9.1
2022-10-03T18:15:00.288Z,9.1
2022-10-03T18:20:00.543Z,9.1
2022-10-03T18:25:00.327Z,9.2
2022-10-03T18:30:00.264Z,9.1
2022-10-03T18:35:00.601Z,9
2022-10-03T18:40:00.327Z,8.7
2022-10-03T18:45:00.292Z,8.6
2022-10-03T18:50:00.263Z,8.6
2022-10-03T18:55:00.246Z,8.6
2022-10-03T19:00:00.270Z,8.7
2022-10-03T19:05:00.322Z,8.6
2022-10-03T19:10:00.255Z,8.6
2022-10-03T19:15:00.611Z,8.5
2022-10-03T19:20:00.338Z,8.5
2022-10-03T19:25:00.264Z,8.4
2022-10-03T19:30:00.262Z,8.4
2022-10-03T19:35:00.269Z,8.4
2022-10-03T19:40:00.264Z,8.4
2022-10-03T19:45:00.270Z,8.4
2022-10-03T19:50:00.263Z,8.3
2022-10-03T19:55:00.265Z,8.1
2022-10-03T20:00:00.262Z,8.2
2022-10-03T20:05:00.465Z,8.1
2022-10-03T20:10:00.262Z,8
2022-10-03T20:15:00.301Z,8
2022-10-03T20:20:00.314Z,8
2022-10-03T20:25:00.248Z,8
2022-10-03T20:30:00.260Z,8.1
2022-10-03T20:35:00.280Z,8.1
2022-10-03T20:40:00.263Z,8.2
2022-10-03T20:45:00.606Z,8.3
2022-10-03T20:50:00.358Z,8.2
2022-10-03T20:55:00.361Z,8.2
2022-10-03T21:00:00.266Z,8.2
2022-10-03T21:05:00.261Z,8.1
2022-10-03T21:10:00.626Z,8.1
2022-10-03T21:15:00.631Z,8.1
2022-10-03T21:20:00.647Z,8.1
2022-10-03T21:25:00.343Z,8
2022-10-03T21:30:00.272Z,7.9
2022-10-03T21:35:00.267Z,7.9
2022-10-03T21:40:00.669Z,7.8
2022-10-03T21:45:00.611Z,7.8
2022-10-03T21:50:00.582Z,7.8
2022-10-03T21:55:00.617Z,7.8
2022-10-03T22:00:00.716Z,7.7
2022-10-03T22:05:00.538Z,7.6
2022-10-03T22:10:00.349Z,7.6
2022-10-03T22:15:00.272Z,7.5
2022-10-03T22:20:00.276Z,7.4
2022-10-03T22:25:00.267Z,7.5
2022-10-03T22:30:00.793Z,7.5
2022-10-03T22:35:00.381Z,7.5
2022-10-03T22:40:00.266Z,7.5
2022-10-03T22:45:00.349Z,7.4
2022-10-03T22:50:00.587Z,7.4
2022-10-03T22:55:00.357Z,7.3
2022-10-03T23:00:00.275Z,7.3
2022-10-03T23:05:00.278Z,7.2
2022-10-03T23:10:00.587Z,7.2
2022-10-03T23:15:00.348Z,7.1
2022-10-03T23:20:00.271Z,7.1
2022-10-03T23:25:00.261Z,7.1
2022-10-03T23:30:00.264Z,7.1
2022-10-03T23:35:00.256Z,7.2
2022-10-03T23:40:00.276Z,7.3
2022-10-03T23:45:00.283Z,7.3
2022-10-03T23:50:00.670Z,7.3
2022-10-03T23:55:00.346Z,7.3
